createdAt,value
2018-04-30T00:00:28.416Z,973.23
2018-04-30T00:01:28.592Z,973.23
2018-04-30T00:02:28.772Z,973.21
2018-04-30T00:03:28.962Z,973.20
2018-04-30T00:04:29.151Z,973.14
2018-04-30T00:05:29.331Z,973.16
2018-04-30T00:06:29.521Z,973.12
2018-04-30T00:07:29.708Z,973.10
2018-04-30T00:08:29.894Z,973.08
2018-04-30T00:09:30.076Z,973.04
2018-04-30T00:10:30.259Z,973.06
2018-04-30T00:11:30.447Z,973.06
2018-04-30T00:12:30.627Z,973.00
2018-04-30T00:13:30.816Z,972.99
2018-04-30T00:14:30.995Z,972.99
2018-04-30T00:15:31.182Z,972.96
2018-04-30T00:16:31.364Z,972.98
2018-04-30T00:17:31.552Z,973.01
2018-04-30T00:18:31.736Z,973.02
2018-04-30T00:19:31.925Z,973.04
2018-04-30T00:20:32.108Z,973.04
2018-04-30T00:21:32.292Z,973.06
2018-04-30T00:22:32.476Z,972.96
2018-04-30T00:23:32.664Z,972.93
2018-04-30T00:24:32.854Z,972.90
2018-04-30T00:25:33.046Z,972.87
2018-04-30T00:26:33.217Z,972.89
2018-04-30T00:27:33.405Z,972.87
2018-04-30T00:28:33.593Z,972.86
2018-04-30T00:29:33.780Z,972.86
2018-04-30T00:30:33.962Z,972.82
2018-04-30T00:31:34.145Z,972.85
2018-04-30T00:32:34.334Z,972.83
2018-04-30T00:33:34.530Z,972.85
2018-04-30T00:34:34.707Z,972.77
2018-04-30T00:35:34.896Z,972.76
2018-04-30T00:36:35.097Z,972.75
2018-04-30T00:37:35.274Z,972.72
2018-04-30T00:38:35.448Z,972.65
2018-04-30T00:39:35.636Z,972.63
2018-04-30T00:40:35.824Z,972.62
2018-04-30T00:41:36.006Z,972.58
2018-04-30T00:42:36.194Z,972.57
2018-04-30T00:43:36.385Z,972.52
2018-04-30T00:44:36.572Z,972.53
2018-04-30T00:45:36.752Z,972.52
2018-04-30T00:46:36.936Z,972.58
2018-04-30T00:47:37.116Z,972.49
2018-04-30T00:48:37.308Z,972.53
2018-04-30T00:49:37.487Z,972.56
2018-04-30T00:50:37.672Z,972.58
2018-04-30T00:51:37.856Z,972.61
2018-04-30T00:52:38.045Z,972.58
2018-04-30T00:53:38.231Z,972.55
2018-04-30T00:54:38.417Z,972.53
2018-04-30T00:55:38.603Z,972.56
2018-04-30T00:56:38.787Z,972.50
2018-04-30T00:57:38.974Z,972.53
2018-04-30T00:58:39.166Z,972.51
2018-04-30T00:59:39.343Z,972.53
2018-04-30T01:00:39.523Z,972.48
2018-04-30T01:01:39.709Z,972.46
2018-04-30T01:02:39.894Z,972.44
2018-04-30T01:03:40.082Z,972.42
2018-04-30T01:04:40.266Z,972.43
2018-04-30T01:05:40.455Z,972.41
2018-04-30T01:06:40.646Z,972.41
2018-04-30T01:07:40.823Z,972.36
2018-04-30T01:08:41.010Z,972.34
2018-04-30T01:09:41.201Z,972.31
2018-04-30T01:10:41.389Z,972.31
2018-04-30T01:11:41.571Z,972.25
2018-04-30T01:12:41.758Z,972.23
2018-04-30T01:13:41.938Z,972.20
2018-04-30T01:14:42.119Z,972.17
2018-04-30T01:15:42.313Z,972.16
2018-04-30T01:16:42.497Z,972.18
2018-04-30T01:17:42.683Z,972.15
2018-04-30T01:18:42.875Z,972.17
2018-04-30T01:19:43.057Z,972.17
2018-04-30T01:20:43.243Z,972.17
2018-04-30T01:21:43.463Z,972.18
2018-04-30T01:22:43.614Z,972.14
2018-04-30T01:23:43.802Z,972.18
2018-04-30T01:24:43.984Z,972.13
2018-04-30T01:25:44.160Z,972.21
2018-04-30T01:26:44.351Z,972.21
2018-04-30T01:27:44.531Z,972.19
2018-04-30T01:28:44.721Z,972.19
2018-04-30T01:29:44.897Z,972.21
2018-04-30T01:30:45.086Z,972.26
2018-04-30T01:31:45.270Z,972.24
2018-04-30T01:32:45.453Z,972.28
2018-04-30T01:33:45.649Z,972.27
2018-04-30T01:34:45.834Z,972.27
2018-04-30T01:35:46.261Z,972.26
2018-04-30T01:36:46.199Z,972.31
2018-04-30T01:37:46.387Z,972.38
2018-04-30T01:38:46.576Z,972.44
2018-04-30T01:39:46.760Z,972.41
2018-04-30T01:40:46.963Z,972.49
2018-04-30T01:41:47.128Z,972.54
2018-04-30T01:42:47.322Z,972.47
2018-04-30T01:43:47.500Z,972.45
2018-04-30T01:44:47.685Z,972.56
2018-04-30T01:45:47.874Z,972.62
2018-04-30T01:46:48.057Z,972.56
2018-04-30T01:47:48.241Z,972.47
2018-04-30T01:48:48.425Z,972.42
2018-04-30T01:49:48.615Z,972.40
2018-04-30T01:50:48.803Z,972.35
2018-04-30T01:51:48.985Z,972.43
2018-04-30T01:52:49.165Z,972.44
2018-04-30T01:53:49.352Z,972.46
2018-04-30T01:54:49.534Z,972.53
2018-04-30T01:55:49.716Z,972.50
2018-04-30T01:56:49.896Z,972.53
2018-04-30T01:57:50.079Z,972.59
2018-04-30T01:58:50.265Z,972.68
2018-04-30T01:59:50.460Z,972.62
2018-04-30T02:00:50.631Z,972.57
2018-04-30T02:01:50.819Z,972.58
2018-04-30T02:02:51.009Z,972.58
2018-04-30T02:03:51.181Z,972.55
2018-04-30T02:04:51.360Z,972.55
2018-04-30T02:05:51.545Z,972.58
2018-04-30T02:06:51.734Z,972.65
2018-04-30T02:07:51.911Z,972.60
2018-04-30T02:08:52.093Z,972.68
2018-04-30T02:09:52.284Z,972.74
2018-04-30T02:10:52.464Z,972.74
2018-04-30T02:11:52.652Z,972.75
2018-04-30T02:12:52.842Z,972.81
2018-04-30T02:13:53.026Z,972.87
2018-04-30T02:14:53.204Z,972.92
2018-04-30T02:15:53.397Z,972.97
2018-04-30T02:16:53.590Z,972.93
2018-04-30T02:17:53.827Z,972.99
2018-04-30T02:18:53.962Z,972.95
2018-04-30T02:19:54.147Z,972.93
2018-04-30T02:20:54.331Z,972.89
2018-04-30T02:21:54.522Z,972.87
2018-04-30T02:22:54.705Z,972.89
2018-04-30T02:23:54.887Z,973.00
2018-04-30T02:24:55.076Z,973.03
2018-04-30T02:25:55.260Z,972.96
2018-04-30T02:26:55.450Z,972.95
2018-04-30T02:27:55.631Z,972.93
2018-04-30T02:28:55.813Z,972.91
2018-04-30T02:29:56.002Z,972.92
2018-04-30T02:30:56.190Z,972.95
2018-04-30T02:31:56.374Z,972.95
2018-04-30T02:32:56.554Z,973.01
2018-04-30T02:33:56.748Z,973.02
2018-04-30T02:34:56.916Z,973.11
2018-04-30T02:35:57.112Z,973.13
2018-04-30T02:36:57.322Z,973.14
2018-04-30T02:37:57.715Z,973.23
2018-04-30T02:38:57.666Z,973.18
2018-04-30T02:39:57.854Z,973.17
2018-04-30T02:40:58.045Z,973.20
2018-04-30T02:41:58.228Z,973.21
2018-04-30T02:42:58.417Z,973.36
2018-04-30T02:43:58.606Z,973.33
2018-04-30T02:44:58.790Z,973.39
2018-04-30T02:45:58.978Z,973.44
2018-04-30T02:46:59.172Z,973.41
2018-04-30T02:47:59.346Z,973.49
2018-04-30T02:48:59.529Z,973.47
2018-04-30T02:49:59.713Z,973.50
2018-04-30T02:50:59.898Z,973.46
2018-04-30T02:52:00.100Z,973.50
2018-04-30T02:53:00.289Z,973.49
2018-04-30T02:54:00.471Z,973.53
2018-04-30T02:55:00.660Z,973.53
2018-04-30T02:56:00.851Z,973.55
2018-04-30T02:57:01.046Z,973.60
2018-04-30T02:58:01.230Z,973.54
2018-04-30T02:59:01.416Z,973.58
2018-04-30T03:00:01.611Z,973.69
2018-04-30T03:01:01.785Z,973.61
2018-04-30T03:03:02.139Z,973.69
2018-04-30T03:04:02.316Z,973.72
2018-04-30T03:05:02.503Z,973.76
2018-04-30T03:06:02.693Z,973.73
2018-04-30T03:07:02.879Z,973.71
2018-04-30T03:08:03.071Z,973.73
2018-04-30T03:09:03.254Z,973.72
2018-04-30T03:12:35.719Z,973.72
2018-04-30T03:13:35.897Z,973.71
2018-04-30T03:14:36.085Z,973.74
2018-04-30T03:15:36.271Z,973.72
2018-04-30T03:16:36.446Z,973.83
2018-04-30T03:17:36.629Z,973.81
2018-04-30T03:18:36.814Z,973.82
2018-04-30T03:19:36.999Z,973.81
2018-04-30T03:20:37.172Z,973.74
2018-04-30T03:21:37.353Z,973.71
2018-04-30T03:22:37.537Z,973.73
2018-04-30T03:23:37.719Z,973.76
2018-04-30T03:24:37.901Z,973.75
2018-04-30T03:26:38.267Z,973.80
2018-04-30T03:27:38.444Z,973.78
2018-04-30T03:28:38.616Z,973.75
2018-04-30T03:29:38.801Z,973.79
2018-04-30T03:30:38.989Z,973.76
2018-04-30T03:31:39.172Z,973.71
2018-04-30T03:32:39.350Z,973.76
2018-04-30T03:33:39.524Z,973.75
2018-04-30T03:34:39.710Z,973.79
2018-04-30T03:35:39.889Z,973.79
2018-04-30T03:36:40.073Z,973.82
2018-04-30T03:37:40.251Z,973.75
2018-04-30T03:38:40.432Z,973.81
2018-04-30T03:39:40.625Z,973.84
2018-04-30T03:40:40.793Z,973.90
2018-04-30T03:41:40.977Z,973.91
2018-04-30T03:42:41.159Z,973.94
2018-04-30T03:43:41.338Z,973.90
2018-04-30T03:44:41.516Z,973.90
2018-04-30T03:45:41.700Z,973.87
2018-04-30T03:46:41.880Z,973.89
2018-04-30T03:47:42.061Z,973.90
2018-04-30T03:48:42.244Z,973.85
2018-04-30T03:49:42.499Z,973.87
2018-04-30T03:50:42.606Z,973.89
2018-04-30T03:51:42.786Z,973.93
2018-04-30T03:52:42.969Z,973.91
2018-04-30T03:53:43.148Z,974.00
2018-04-30T03:54:43.339Z,974.02
2018-04-30T03:55:43.507Z,974.06
2018-04-30T03:56:43.696Z,974.07
2018-04-30T03:57:43.872Z,974.06
2018-04-30T03:58:44.062Z,974.04
2018-04-30T04:00:44.419Z,974.06
2018-04-30T04:01:44.601Z,974.04
2018-04-30T04:02:44.783Z,974.05
2018-04-30T04:03:44.958Z,974.07
2018-04-30T04:04:45.144Z,974.05
2018-04-30T04:05:45.319Z,974.04
2018-04-30T04:06:45.507Z,974.11
2018-04-30T04:07:45.680Z,974.07
2018-04-30T04:08:45.863Z,974.08
2018-04-30T04:09:46.054Z,974.05
2018-04-30T04:10:46.228Z,974.09
2018-04-30T04:11:46.408Z,974.04
2018-04-30T04:12:46.607Z,974.07
2018-04-30T04:13:46.769Z,974.06
2018-04-30T04:14:46.952Z,974.08
2018-04-30T04:15:47.135Z,974.16
2018-04-30T04:16:47.316Z,974.20
2018-04-30T04:17:47.500Z,974.22
2018-04-30T04:18:47.688Z,974.27
2018-04-30T04:19:47.861Z,974.30
2018-04-30T04:20:48.042Z,974.34
2018-04-30T04:21:48.226Z,974.39
2018-04-30T04:22:48.407Z,974.44
2018-04-30T04:23:48.592Z,974.44
2018-04-30T04:24:48.772Z,974.45
2018-04-30T04:25:48.958Z,974.52
2018-04-30T04:26:49.130Z,974.51
2018-04-30T04:27:49.313Z,974.57
2018-04-30T04:28:49.498Z,974.59
2018-04-30T04:29:49.670Z,974.59
2018-04-30T04:30:49.848Z,974.70
2018-04-30T04:31:50.034Z,974.74
2018-04-30T04:32:50.216Z,974.71
2018-04-30T04:33:50.399Z,974.74
2018-04-30T04:34:50.591Z,974.74
2018-04-30T04:35:50.761Z,974.74
2018-04-30T04:36:50.954Z,974.72
2018-04-30T04:37:51.140Z,974.73
2018-04-30T04:38:51.319Z,974.75
2018-04-30T04:39:51.493Z,974.76
2018-04-30T04:40:51.982Z,974.81
2018-04-30T04:41:51.852Z,974.78
2018-04-30T04:42:52.035Z,974.80
2018-04-30T04:43:52.219Z,974.76
2018-04-30T04:44:52.391Z,974.77
2018-04-30T04:45:52.587Z,974.86
2018-04-30T04:46:52.755Z,974.88
2018-04-30T04:47:52.937Z,974.93
2018-04-30T04:48:53.183Z,974.92
2018-04-30T04:49:53.310Z,974.88
2018-04-30T04:50:53.493Z,974.88
2018-04-30T04:51:53.662Z,974.86
2018-04-30T04:52:53.848Z,974.91
2018-04-30T04:53:54.027Z,974.85
2018-04-30T04:54:54.211Z,974.86
2018-04-30T04:55:54.389Z,974.86
2018-04-30T04:56:54.576Z,974.90
2018-04-30T04:57:54.763Z,974.89
2018-04-30T04:58:54.937Z,974.91
2018-04-30T04:59:55.121Z,974.92
2018-04-30T05:00:55.310Z,974.96
2018-04-30T05:01:55.488Z,975.00
2018-04-30T05:02:55.677Z,975.04
2018-04-30T05:03:55.855Z,975.01
2018-04-30T05:04:56.037Z,975.03
2018-04-30T05:05:56.220Z,975.07
2018-04-30T05:06:56.397Z,975.04
2018-04-30T05:07:56.581Z,975.08
2018-04-30T05:08:56.759Z,975.05
2018-04-30T05:09:56.947Z,975.09
2018-04-30T05:10:57.210Z,975.10
2018-04-30T05:11:57.305Z,975.10
2018-04-30T05:12:57.497Z,975.23
2018-04-30T05:13:57.668Z,975.13
2018-04-30T05:14:57.852Z,975.21
2018-04-30T05:15:58.034Z,975.25
2018-04-30T05:16:58.214Z,975.22
2018-04-30T05:17:58.427Z,975.35
2018-04-30T05:18:58.568Z,975.37
2018-04-30T05:19:58.748Z,975.36
2018-04-30T05:20:59.030Z,975.40
2018-04-30T05:21:59.110Z,975.41
2018-04-30T05:22:59.303Z,975.42
2018-04-30T05:23:59.473Z,975.48
2018-04-30T05:24:59.650Z,975.48
2018-04-30T05:25:59.832Z,975.49
2018-04-30T05:27:00.015Z,975.50
2018-04-30T05:28:00.198Z,975.45
2018-04-30T05:29:00.375Z,975.49
2018-04-30T05:30:00.561Z,975.50
2018-04-30T05:31:00.754Z,975.54
2018-04-30T05:32:00.915Z,975.53
2018-04-30T05:33:01.101Z,975.67
2018-04-30T05:34:01.286Z,975.69
2018-04-30T05:35:01.460Z,975.76
2018-04-30T05:36:01.638Z,975.73
2018-04-30T05:37:01.820Z,975.79
2018-04-30T05:38:01.999Z,975.86
2018-04-30T05:39:02.186Z,975.92
2018-04-30T05:40:02.363Z,975.98
2018-04-30T05:41:02.537Z,975.84
2018-04-30T05:42:02.721Z,975.92
2018-04-30T05:43:02.900Z,976.01
2018-04-30T05:44:03.068Z,975.95
2018-04-30T05:45:03.249Z,976.06
2018-04-30T05:46:03.436Z,976.00
2018-04-30T05:47:03.604Z,976.00
2018-04-30T05:48:03.859Z,975.95
2018-04-30T05:49:03.966Z,976.02
2018-04-30T05:50:04.156Z,976.02
2018-04-30T05:51:04.330Z,975.95
2018-04-30T05:52:04.510Z,976.07
2018-04-30T05:53:04.708Z,976.03
2018-04-30T05:54:04.871Z,976.06
2018-04-30T05:55:05.123Z,976.14
2018-04-30T05:56:05.225Z,976.01
2018-04-30T05:57:05.401Z,976.13
2018-04-30T05:58:05.600Z,976.13
2018-04-30T05:59:05.756Z,976.14
2018-04-30T06:00:05.936Z,976.26
2018-04-30T06:01:06.113Z,976.27
2018-04-30T06:02:06.544Z,976.29
2018-04-30T06:03:06.482Z,976.27
2018-04-30T06:04:06.664Z,976.29
2018-04-30T06:05:06.845Z,976.32
2018-04-30T06:06:07.029Z,976.33
2018-04-30T06:07:07.213Z,976.30
2018-04-30T06:08:07.384Z,976.31
2018-04-30T06:09:07.576Z,976.33
2018-04-30T06:10:07.751Z,976.30
2018-04-30T06:11:07.931Z,976.37
2018-04-30T06:12:08.159Z,976.28
2018-04-30T06:13:08.299Z,976.28
2018-04-30T06:14:08.475Z,976.34
2018-04-30T06:15:08.657Z,976.29
2018-04-30T06:16:08.841Z,976.30
2018-04-30T06:17:09.020Z,976.27
2018-04-30T06:18:09.225Z,976.27
2018-04-30T06:19:09.375Z,976.23
2018-04-30T06:20:09.556Z,976.33
2018-04-30T06:21:09.726Z,976.33
2018-04-30T06:22:09.908Z,976.33
2018-04-30T06:23:10.090Z,976.39
2018-04-30T06:24:10.264Z,976.40
2018-04-30T06:25:10.435Z,976.38
2018-04-30T06:26:10.621Z,976.47
2018-04-30T06:27:10.794Z,976.35
2018-04-30T06:28:10.972Z,976.48
2018-04-30T06:29:11.155Z,976.52
2018-04-30T06:30:12.253Z,976.55
2018-04-30T06:31:11.499Z,976.53
2018-04-30T06:32:11.677Z,976.57
2018-04-30T06:33:11.860Z,976.52
2018-04-30T06:34:12.052Z,976.55
2018-04-30T06:35:12.220Z,976.56
2018-04-30T06:36:12.465Z,976.54
2018-04-30T06:37:12.578Z,976.55
2018-04-30T06:38:12.776Z,976.57
2018-04-30T06:39:12.938Z,976.60
2018-04-30T06:40:13.109Z,976.59
2018-04-30T06:41:13.303Z,976.51
2018-04-30T06:42:13.466Z,976.60
2018-04-30T06:43:13.632Z,976.54
2018-04-30T06:44:13.823Z,976.68
2018-04-30T06:45:14.010Z,976.67
2018-04-30T06:46:14.443Z,976.83
2018-04-30T06:47:14.375Z,976.75
2018-04-30T06:48:14.553Z,976.90
2018-04-30T06:49:14.742Z,976.93
2018-04-30T06:50:14.915Z,976.74
2018-04-30T06:51:15.089Z,977.20
2018-04-30T06:52:15.278Z,977.27
2018-04-30T06:53:15.444Z,977.42
2018-04-30T06:54:15.626Z,977.31
2018-04-30T06:55:15.815Z,977.19
2018-04-30T06:56:15.990Z,977.41
2018-04-30T06:57:16.163Z,977.01
2018-04-30T06:58:16.337Z,977.25
2018-04-30T06:59:16.521Z,977.08
2018-04-30T07:00:16.722Z,977.11
2018-04-30T07:01:16.882Z,977.07
2018-04-30T07:02:17.063Z,977.11
2018-04-30T07:03:17.245Z,977.16
2018-04-30T07:04:17.428Z,977.08
2018-04-30T07:05:17.618Z,977.13
2018-04-30T07:06:17.796Z,977.11
2018-04-30T07:07:17.990Z,977.14
2018-04-30T07:08:18.169Z,977.15
2018-04-30T07:09:18.555Z,977.23
2018-04-30T07:10:18.520Z,977.25
2018-04-30T07:11:18.704Z,977.17
2018-04-30T07:12:18.882Z,977.25
2018-04-30T07:13:19.066Z,977.27
2018-04-30T07:14:19.275Z,977.26
2018-04-30T07:15:19.412Z,977.24
2018-04-30T07:16:19.591Z,977.33
2018-04-30T07:17:19.783Z,977.29
2018-04-30T07:18:19.961Z,977.32
2018-04-30T07:19:20.158Z,977.39
2018-04-30T07:20:20.337Z,977.36
2018-04-30T07:21:20.505Z,977.40
2018-04-30T07:22:20.686Z,977.47
2018-04-30T07:23:20.872Z,977.46
2018-04-30T07:24:21.056Z,977.51
2018-04-30T07:25:21.234Z,977.46
2018-04-30T07:26:21.420Z,977.48
2018-04-30T07:27:21.611Z,977.36
2018-04-30T07:28:21.784Z,977.31
2018-04-30T07:29:21.973Z,977.49
2018-04-30T07:30:22.135Z,977.29
2018-04-30T07:31:22.315Z,977.33
2018-04-30T07:32:22.478Z,977.33
2018-04-30T07:33:22.672Z,977.27
2018-04-30T07:34:22.844Z,977.20
2018-04-30T07:35:23.029Z,977.20
2018-04-30T07:36:23.224Z,977.25
2018-04-30T07:37:23.405Z,977.24
2018-04-30T07:38:23.578Z,977.39
2018-04-30T07:39:23.813Z,977.55
2018-04-30T07:40:23.939Z,977.59
2018-04-30T07:41:24.122Z,977.63
2018-04-30T07:42:24.292Z,977.69
2018-04-30T07:43:24.479Z,977.65
2018-04-30T07:44:24.657Z,977.60
2018-04-30T07:45:25.077Z,977.60
2018-04-30T07:46:25.014Z,977.74
2018-04-30T07:47:25.188Z,977.69
2018-04-30T07:48:25.366Z,977.68
2018-04-30T07:49:25.541Z,977.67
2018-04-30T07:50:25.723Z,977.72
2018-04-30T07:51:25.909Z,977.68
2018-04-30T07:52:26.078Z,977.87
2018-04-30T07:53:26.260Z,977.85
2018-04-30T07:54:26.449Z,977.78
2018-04-30T07:55:26.626Z,977.99
2018-04-30T07:56:26.807Z,977.90
2018-04-30T07:57:26.994Z,977.89
2018-04-30T07:58:27.174Z,977.85
2018-04-30T07:59:27.354Z,977.91
2018-04-30T08:00:27.531Z,977.83
2018-04-30T08:01:27.713Z,977.85
2018-04-30T08:02:27.894Z,977.85
2018-04-30T08:03:28.134Z,977.75
2018-04-30T08:05:28.425Z,977.83
2018-04-30T08:06:28.606Z,977.88
2018-04-30T08:07:28.783Z,978.00
2018-04-30T08:08:28.979Z,977.96
2018-04-30T08:09:29.171Z,977.92
2018-04-30T08:10:29.329Z,977.90
2018-04-30T08:11:29.571Z,977.82
2018-04-30T08:12:29.710Z,977.93
2018-04-30T08:13:29.904Z,977.85
2018-04-30T08:14:30.071Z,977.85
2018-04-30T08:15:30.252Z,977.84
2018-04-30T08:16:30.422Z,977.85
2018-04-30T08:17:30.605Z,977.87
2018-04-30T08:18:30.987Z,977.74
2018-04-30T08:19:31.018Z,977.62
2018-04-30T08:20:31.235Z,977.52
2018-04-30T08:21:31.447Z,977.57
2018-04-30T08:22:31.593Z,977.64
2018-04-30T08:23:31.776Z,977.66
2018-04-30T08:24:31.957Z,977.62
2018-04-30T08:25:32.137Z,977.56
2018-04-30T08:26:32.320Z,977.55
2018-04-30T08:27:32.497Z,977.47
2018-04-30T08:28:32.676Z,977.48
2018-04-30T08:29:32.854Z,977.37
2018-04-30T08:30:33.043Z,977.55
2018-04-30T08:31:33.214Z,977.64
2018-04-30T08:32:33.403Z,977.86
2018-04-30T08:33:33.579Z,978.07
2018-04-30T08:34:33.780Z,978.14
2018-04-30T08:35:33.949Z,978.22
2018-04-30T08:36:34.136Z,978.30
2018-04-30T08:37:34.290Z,978.42
2018-04-30T08:38:34.481Z,978.44
2018-04-30T08:39:34.644Z,978.50
2018-04-30T08:40:34.836Z,978.49
2018-04-30T08:41:35.012Z,978.50
2018-04-30T08:42:35.180Z,978.59
2018-04-30T08:43:35.353Z,978.66
2018-04-30T08:44:35.546Z,978.62
2018-04-30T08:45:35.721Z,978.65
2018-04-30T08:46:35.880Z,978.66
2018-04-30T08:47:36.085Z,978.68
2018-04-30T08:48:36.264Z,978.67
2018-04-30T08:49:36.447Z,978.66
2018-04-30T08:50:36.625Z,978.72
2018-04-30T08:51:36.811Z,978.62
2018-04-30T08:52:36.985Z,978.58
2018-04-30T08:53:37.205Z,978.58
2018-04-30T08:54:37.370Z,978.63
2018-04-30T08:55:37.555Z,978.56
2018-04-30T08:56:37.733Z,978.61
2018-04-30T08:57:37.944Z,978.65
2018-04-30T08:58:38.082Z,978.67
2018-04-30T08:59:38.256Z,978.76
2018-04-30T09:00:38.580Z,978.89
2018-04-30T09:01:38.593Z,978.77
2018-04-30T09:02:39.023Z,978.64
2018-04-30T09:03:38.967Z,978.56
2018-04-30T09:04:39.135Z,978.47
2018-04-30T09:05:39.310Z,978.49
2018-04-30T09:06:39.505Z,978.39
2018-04-30T09:07:39.633Z,978.39
2018-04-30T09:08:39.834Z,978.38
2018-04-30T09:09:40.118Z,978.33
2018-04-30T09:10:40.217Z,978.29
2018-04-30T09:11:40.332Z,978.36
2018-04-30T09:12:40.507Z,978.40
2018-04-30T09:13:40.683Z,978.32
2018-04-30T09:14:40.887Z,978.38
2018-04-30T09:15:41.061Z,978.47
2018-04-30T09:16:41.248Z,978.52
2018-04-30T09:17:41.432Z,978.53
2018-04-30T09:18:41.607Z,978.39
2018-04-30T09:19:41.780Z,978.35
2018-04-30T09:20:41.975Z,978.41
2018-04-30T09:21:42.148Z,978.27
2018-04-30T09:22:42.333Z,978.12
2018-04-30T09:23:42.515Z,978.03
2018-04-30T09:24:42.687Z,978.11
2018-04-30T09:25:42.858Z,978.12
2018-04-30T09:26:43.030Z,978.26
2018-04-30T09:27:43.226Z,978.26
2018-04-30T09:28:43.421Z,978.33
2018-04-30T09:29:43.836Z,978.26
2018-04-30T09:30:43.754Z,978.23
2018-04-30T09:31:43.932Z,978.24
2018-04-30T09:32:44.136Z,978.26
2018-04-30T09:33:44.289Z,978.28
2018-04-30T09:34:44.472Z,978.30
2018-04-30T09:35:44.650Z,978.35
2018-04-30T09:36:44.837Z,978.39
2018-04-30T09:37:45.019Z,978.35
2018-04-30T09:38:45.187Z,978.45
2018-04-30T09:39:45.368Z,978.40
2018-04-30T09:40:45.553Z,978.34
2018-04-30T09:41:45.751Z,978.38
2018-04-30T09:42:45.902Z,978.41
2018-04-30T09:43:46.083Z,978.40
2018-04-30T09:44:46.278Z,978.32
2018-04-30T09:45:46.447Z,978.46
2018-04-30T09:46:46.635Z,978.45
2018-04-30T09:47:46.808Z,978.50
2018-04-30T09:48:46.987Z,978.45
2018-04-30T09:49:47.167Z,978.52
2018-04-30T09:50:47.350Z,978.44
2018-04-30T09:51:47.529Z,978.51
2018-04-30T09:52:47.734Z,978.52
2018-04-30T09:53:47.900Z,978.45
2018-04-30T09:54:48.090Z,978.38
2018-04-30T09:55:48.263Z,978.45
2018-04-30T09:56:48.690Z,978.49
2018-04-30T09:57:48.662Z,978.52
2018-04-30T09:58:48.811Z,978.48
2018-04-30T09:59:48.986Z,978.43
2018-04-30T10:00:49.169Z,978.55
2018-04-30T10:01:49.347Z,978.44
2018-04-30T10:02:49.527Z,978.49
2018-04-30T10:03:49.700Z,978.46
2018-04-30T10:04:49.883Z,978.37
2018-04-30T10:05:50.062Z,978.37
2018-04-30T10:06:50.252Z,978.41
2018-04-30T10:07:50.423Z,978.38
2018-04-30T10:08:50.604Z,978.43
2018-04-30T10:09:50.789Z,978.37
2018-04-30T10:10:50.972Z,978.38
2018-04-30T10:11:51.155Z,978.42
2018-04-30T10:12:51.349Z,978.26
2018-04-30T10:13:51.520Z,978.34
2018-04-30T10:14:51.693Z,978.37
2018-04-30T10:15:51.885Z,978.39
2018-04-30T10:16:52.060Z,978.45
2018-04-30T10:17:52.323Z,978.35
2018-04-30T10:18:52.427Z,978.47
2018-04-30T10:19:52.609Z,978.48
2018-04-30T10:20:52.774Z,978.45
2018-04-30T10:21:52.957Z,978.35
2018-04-30T10:22:53.137Z,978.42
2018-04-30T10:23:53.336Z,978.44
2018-04-30T10:24:53.500Z,978.48
2018-04-30T10:25:53.688Z,978.42
2018-04-30T10:26:53.853Z,978.51
2018-04-30T10:27:54.031Z,978.49
2018-04-30T10:28:54.208Z,978.45
2018-04-30T10:29:54.395Z,978.47
2018-04-30T10:30:54.585Z,978.40
2018-04-30T10:31:54.755Z,978.44
2018-04-30T10:32:54.946Z,978.46
2018-04-30T10:33:55.121Z,978.48
2018-04-30T10:34:55.314Z,978.46
2018-04-30T10:35:55.490Z,978.56
2018-04-30T10:36:55.671Z,978.63
2018-04-30T10:37:55.981Z,978.62
2018-04-30T10:38:56.039Z,978.66
2018-04-30T10:39:56.217Z,978.59
2018-04-30T10:40:56.411Z,978.65
2018-04-30T10:41:56.574Z,978.65
2018-04-30T10:42:56.766Z,978.63
2018-04-30T10:43:56.929Z,978.69
2018-04-30T10:44:57.127Z,978.65
2018-04-30T10:45:57.329Z,978.62
2018-04-30T10:46:57.488Z,978.59
2018-04-30T10:47:57.912Z,978.61
2018-04-30T10:48:57.850Z,978.55
2018-04-30T10:49:58.013Z,978.66
2018-04-30T10:50:58.207Z,978.64
2018-04-30T10:51:58.369Z,978.66
2018-04-30T10:52:58.559Z,978.68
2018-04-30T10:53:58.735Z,978.64
2018-04-30T10:54:58.924Z,978.60
2018-04-30T10:55:59.100Z,978.62
2018-04-30T10:56:59.284Z,978.60
2018-04-30T10:57:59.463Z,978.65
2018-04-30T10:58:59.641Z,978.62
2018-04-30T10:59:59.813Z,978.65
2018-04-30T11:00:59.998Z,978.64
2018-04-30T11:02:00.187Z,978.73
2018-04-30T11:03:00.371Z,978.68
2018-04-30T11:04:00.556Z,978.78
2018-04-30T11:05:00.970Z,978.68
2018-04-30T11:06:00.926Z,978.66
2018-04-30T11:07:01.077Z,978.65
2018-04-30T11:08:01.267Z,978.73
2018-04-30T11:09:01.457Z,978.71
2018-04-30T11:10:01.630Z,978.70
2018-04-30T11:11:01.821Z,978.65
2018-04-30T11:12:01.994Z,978.64
2018-04-30T11:13:02.173Z,978.65
2018-04-30T11:14:02.356Z,978.70
2018-04-30T11:15:02.545Z,978.67
2018-04-30T11:16:02.720Z,978.69
2018-04-30T11:17:02.899Z,978.62
2018-04-30T11:18:03.089Z,978.61
2018-04-30T11:19:03.268Z,978.72
2018-04-30T11:20:03.451Z,978.68
2018-04-30T11:21:03.636Z,978.64
2018-04-30T11:22:04.055Z,978.68
2018-04-30T11:23:04.003Z,978.65
2018-04-30T11:24:04.185Z,978.70
2018-04-30T11:26:04.542Z,978.66
2018-04-30T11:27:04.728Z,978.70
2018-04-30T11:28:04.916Z,978.70
2018-04-30T11:29:05.090Z,978.63
2018-04-30T11:30:05.274Z,978.55
2018-04-30T11:31:05.448Z,978.65
2018-04-30T11:32:05.662Z,978.68
2018-04-30T11:33:05.820Z,978.69
2018-04-30T11:34:06.027Z,978.61
2018-04-30T11:35:06.182Z,978.63
2018-04-30T11:36:06.368Z,978.63
2018-04-30T11:37:06.546Z,978.68
2018-04-30T11:38:06.727Z,978.67
2018-04-30T11:39:06.909Z,978.65
2018-04-30T11:40:07.137Z,978.67
2018-04-30T11:41:07.292Z,978.63
2018-04-30T11:42:07.475Z,978.65
2018-04-30T11:43:07.652Z,978.68
2018-04-30T11:44:07.832Z,978.74
2018-04-30T11:45:08.018Z,978.70
2018-04-30T11:46:08.197Z,978.68
2018-04-30T11:47:08.438Z,978.73
2018-04-30T11:48:08.566Z,978.71
2018-04-30T11:49:08.760Z,978.75
2018-04-30T11:50:08.956Z,978.74
2018-04-30T11:51:09.122Z,978.81
2018-04-30T11:52:09.300Z,978.78
2018-04-30T11:53:09.480Z,978.79
2018-04-30T11:54:09.660Z,978.79
2018-04-30T11:55:09.850Z,978.90
2018-04-30T11:56:10.036Z,978.87
2018-04-30T11:57:10.209Z,978.68
2018-04-30T11:58:10.376Z,978.88
2018-04-30T11:59:10.565Z,978.77
2018-04-30T12:00:10.744Z,978.83
2018-04-30T12:01:10.928Z,978.87
2018-04-30T12:02:11.104Z,978.89
2018-04-30T12:03:11.277Z,978.77
2018-04-30T12:04:11.455Z,978.88
2018-04-30T12:05:11.639Z,978.86
2018-04-30T12:06:11.827Z,978.98
2018-04-30T12:07:12.003Z,978.91
2018-04-30T12:08:12.190Z,978.94
2018-04-30T12:09:12.364Z,979.02
2018-04-30T12:10:12.550Z,978.98
2018-04-30T12:11:12.744Z,979.00
2018-04-30T12:12:12.949Z,979.01
2018-04-30T12:13:13.135Z,978.95
2018-04-30T12:14:13.319Z,978.99
2018-04-30T12:15:13.502Z,978.90
2018-04-30T12:16:13.699Z,978.91
2018-04-30T12:17:13.869Z,978.93
2018-04-30T12:18:14.050Z,979.04
2018-04-30T12:19:14.243Z,978.99
2018-04-30T12:20:14.667Z,979.03
2018-04-30T12:21:14.600Z,978.98
2018-04-30T12:22:14.858Z,978.98
2018-04-30T12:23:14.972Z,978.91
2018-04-30T12:24:15.146Z,979.08
2018-04-30T12:25:15.352Z,979.11
2018-04-30T12:26:15.535Z,979.16
2018-04-30T12:27:15.723Z,979.04
2018-04-30T12:28:15.964Z,978.98
2018-04-30T12:29:16.080Z,979.06
2018-04-30T12:31:16.445Z,979.07
2018-04-30T12:32:16.624Z,978.96
2018-04-30T12:33:16.803Z,979.18
2018-04-30T12:34:16.989Z,979.09
2018-04-30T12:35:17.174Z,979.08
2018-04-30T12:36:17.355Z,979.16
2018-04-30T12:37:17.553Z,979.20
2018-04-30T12:38:17.727Z,979.06
2018-04-30T12:39:17.908Z,979.04